• Join FlightAware (Why Join?)
  • Login
  • US Flag 
01:34AM EDT


 

Airport Tracker/Info


-or-


 

Live Flight TrackerFlight Track Log ✈ C-FXDD ✈ 01-Jun-2013 ✈ CZJG - CYAV

Flight Track Log - Related Links

Times and Time Zones

All times are in EDT time to prevent confusion due to time zone crossing. See the C-FXDD flight status page for this flight to view local times or setup timezone preferences in your user account.

Time Position Orientation Groundspeed Altitude Reporting Facility
EDT Latitude Longitude Course Direction KTS MPH feet Rate Location/Type
10:07AM 54.3333 -97.9667 168° South 150 173 5,100  Level Winnipeg Center
10:08AM 54.3000 -97.9667 180° South 160 184 5,100 -60 Level Winnipeg Center
10:10AM 54.2259 -97.9368 167° South  Level FlightAware Approximate
10:12AM 54.0045 -97.8470 168° South  Level FlightAware Approximate
10:17AM 53.9026 -97.7994 163° South  Level FlightAware Approximate
10:18AM 53.8571 -97.7755 163° South  Level FlightAware Approximate
10:19AM 53.8117 -97.7515 163° South  Level FlightAware Approximate
10:20AM 53.7662 -97.7277 163° South  Level FlightAware Approximate
10:21AM 53.7207 -97.7038 163° South  Level FlightAware Approximate
10:22AM 53.6753 -97.6801 163° South  Level FlightAware Approximate
10:23AM 53.6298 -97.6563 163° South  Level FlightAware Approximate
10:24AM 53.5843 -97.6327 163° South  Level FlightAware Approximate
10:25AM 53.5388 -97.6091 163° South  Level FlightAware Approximate
10:26AM 53.4933 -97.5855 163° South  Level FlightAware Approximate
10:27AM 53.4478 -97.5620 163° South  Level FlightAware Approximate
10:28AM 53.4023 -97.5385 163° South  Level FlightAware Approximate
10:29AM 53.3568 -97.5151 163° South  Level FlightAware Approximate
10:30AM 53.3113 -97.4917 163° South  Level FlightAware Approximate
10:31AM 53.2658 -97.4684 163° South  Level FlightAware Approximate
10:32AM 53.2202 -97.4451 163° South  Level FlightAware Approximate
10:33AM 53.1747 -97.4219 163° South  Level FlightAware Approximate
10:34AM 53.1292 -97.3987 163° South  Level FlightAware Approximate
10:35AM 53.0836 -97.3756 163° South  Level FlightAware Approximate
10:36AM 53.0381 -97.3525 163° South  Level FlightAware Approximate
10:37AM 52.9926 -97.3295 163° South  Level FlightAware Approximate
10:38AM 52.9470 -97.3065 163° South  Level FlightAware Approximate
10:39AM 52.9015 -97.2836 163° South  Level FlightAware Approximate
10:40AM 52.8559 -97.2607 163° South  Level FlightAware Approximate
10:41AM 52.8103 -97.2379 163° South  Level FlightAware Approximate
10:42AM 52.7648 -97.2151 163° South  Level FlightAware Approximate
10:43AM 52.7192 -97.1924 163° South  Level FlightAware Approximate
10:44AM 52.6736 -97.1697 163° South  Level FlightAware Approximate
10:45AM 52.6281 -97.1471 163° South  Level FlightAware Approximate
10:46AM 52.5825 -97.1245 163° South  Level FlightAware Approximate
10:47AM 52.5367 -97.1028 164° South  Level FlightAware Approximate
10:48AM 52.4909 -97.0816 164° South  Level FlightAware Approximate
10:49AM 52.4451 -97.0604 164° South  Level FlightAware Approximate
10:50AM 52.3993 -97.0393 164° South  Level FlightAware Approximate
10:51AM 52.3534 -97.0182 164° South  Level FlightAware Approximate
10:52AM 52.3086 -96.9920 160° South  Level FlightAware Approximate
10:53AM 52.2639 -96.9654 160° South  Level FlightAware Approximate
10:54AM 52.2191 -96.9389 160° South  Level FlightAware Approximate
10:55AM 52.1744 -96.9124 160° South  Level FlightAware Approximate
10:56AM 52.1296 -96.8860 160° South  Level FlightAware Approximate
10:57AM 52.0849 -96.8596 160° South  Level FlightAware Approximate
10:58AM 52.0401 -96.8333 160° South  Level FlightAware Approximate
10:59AM 51.9953 -96.8070 160° South  Level FlightAware Approximate
11:00AM 51.9506 -96.7808 160° South  Level FlightAware Approximate
11:01AM 51.9058 -96.7546 160° South  Level FlightAware Approximate
11:02AM 51.8610 -96.7285 160° South  Level FlightAware Approximate
11:03AM 51.8162 -96.7024 160° South  Level FlightAware Approximate
11:04AM 51.7709 -96.6872 191° South  Level FlightAware Approximate
11:05AM 51.7241 -96.7015 191° South  Level FlightAware Approximate
11:06AM 51.6773 -96.7159 191° South  Level FlightAware Approximate
11:07AM 51.6306 -96.7302 191° South  Level FlightAware Approximate
11:08AM 51.5838 -96.7445 191° South  Level FlightAware Approximate
11:09AM 51.5370 -96.7587 191° South  Level FlightAware Approximate
11:10AM 51.4902 -96.7730 191° South  Level FlightAware Approximate
11:11AM 51.4435 -96.7872 191° South  Level FlightAware Approximate
11:12AM 51.3967 -96.8013 191° South  Level FlightAware Approximate
11:13AM 51.3499 -96.8155 191° South  Level FlightAware Approximate
11:14AM 51.3031 -96.8296 191° South  Level FlightAware Approximate
11:15AM 51.2564 -96.8437 191° South  Level FlightAware Approximate
11:16AM 51.2096 -96.8577 191° South  Level FlightAware Approximate
11:16AM 51.2333 -96.8500 191° South 170 196 5,000  Level Winnipeg Center
11:17AM 51.1628 -96.8717 191° South  Level FlightAware Approximate
11:17AM 51.1833 -96.8500 180° South 180 207 5,100  Level Winnipeg Center
11:18AM 51.1160 -96.8857 191° South  Level FlightAware Approximate
11:18AM 51.1333 -96.8833 203° Southwest 180 207 5,100  Level Winnipeg Center
11:19AM 51.0692 -96.8997 191° South  Level FlightAware Approximate
11:19AM 51.0833 -96.8833 180° South 180 207 5,100  Level Winnipeg Center
11:20AM 51.0224 -96.9137 191° South  Level FlightAware Approximate
11:20AM 51.0333 -96.9167 203° Southwest 180 207 5,100  Level Winnipeg Center
11:21AM 50.9756 -96.9276 191° South  Level FlightAware Approximate
11:21AM 50.9833 -96.9167 180° South 180 207 5,100  Level Winnipeg Center
11:22AM 50.9333 -96.9333 192° South 180 207 5,100  Level Winnipeg Center
11:23AM 50.9000 -96.9333 180° South 180 207 5,100  Level Winnipeg Center
11:24AM 50.8500 -96.9667 203° Southwest 180 207 5,100  Level Winnipeg Center
11:25AM 50.8000 -97.0000 203° Southwest 170 196 5,100  Level Winnipeg Center
11:26AM 50.7500 -97.0000 180° South 170 196 5,100  Level Winnipeg Center
11:27AM 50.7000 -97.0167 192° South 170 196 5,100  Level Winnipeg Center
11:28AM 50.6500 -97.0167 180° South 180 207 5,100  Level Winnipeg Center
11:29AM 50.6167 -97.0500 212° Southwest 180 207 5,100  Level Winnipeg Center
11:30AM 50.5667 -97.0500 180° South 170 196 5,100  Level Winnipeg Center
11:31AM 50.5167 -97.0500 180° South 170 196 5,100  Level Winnipeg Center
11:32AM 50.4667 -97.0167 157° South 170 196 5,100  Level Winnipeg Center
11:33AM 50.4167 -97.0167 180° South 170 196 5,100  Level Winnipeg Center
11:34AM 50.3667 -97.0167 180° South 170 196 5,100  Level Winnipeg Center
11:35AM 50.3167 -97.0167 180° South 170 196 5,100 -120 Level Winnipeg Center
11:36AM 50.2833 -97.0167 180° South 170 196 4,900 -300 Descending Winnipeg Center
11:37AM 50.2333 -97.0167 180° South 170 196 4,500 -420 Descending Winnipeg Center
11:38AM 50.1833 -97.0167 180° South 170 196 4,100 -240 Descending Winnipeg Center
11:39AM 50.1333 -97.0167 180° South 160 184 4,100  Level Winnipeg Center
11:40AM 50.1000 -97.0000 162° South 150 173 4,100  Level Winnipeg Center
11:41AM 50.0500 -96.9667 157° South 150 173 4,100 -300 Level Winnipeg Center
11:42AM 50.0167 -96.9167 136° Southeast 160 184 3,600 -420 Descending Winnipeg Center
11:43AM 50.0000 -96.8667 117° Southeast 150 173 3,300 -300 Descending Winnipeg Center
11:44AM 50.0000 -96.8167 90° East 140 161 3,100 -120 Descending Winnipeg Center
11:45AM 49.9833 -96.7500 111° Southeast 130 150 3,100  Level Winnipeg Center
11:46AM 49.9500 -96.7500 180° South 150 173 3,100 -60 Level Winnipeg Center
11:47AM 49.9333 -96.8167 249° West 110 127 3,000 -240 Descending Winnipeg Center
11:48AM 49.9500 -96.8333 327° Northwest 130 150 2,700 -300 Descending Winnipeg Center
11:49AM 49.9667 -96.8833 297° West 140 161 2,500 -300 Descending Winnipeg Center
11:50AM 49.9833 -96.9333 297° West 130 150 2,100 -240 Descending Winnipeg Center
11:51AM 50.0000 -97.0000 291° West 100 115 2,100 -180 Level Winnipeg Center
11:52AM 50.0167 -97.0167 327° Northwest 90 104 1,800 -540 Descending Winnipeg Center
11:53AM 50.0333 -97.0500 308° West 60 69 1,100 -720 Descending Winnipeg Center